sensor_id;sensor_type;location;lat;lon;timestamp;temperature;humidity
1626;DHT22;806;48.770;9.156;2023-02-14T00:01:16;2.00;99.90
1626;DHT22;806;48.770;9.156;2023-02-14T00:03:42;2.00;99.90
1626;DHT22;806;48.770;9.156;2023-02-14T00:06:11;2.00;99.90
1626;DHT22;806;48.770;9.156;2023-02-14T00:08:38;1.90;99.90
1626;DHT22;806;48.770;9.156;2023-02-14T00:11:05;1.90;99.90
1626;DHT22;806;48.770;9.156;2023-02-14T00:13:32;1.90;99.90
1626;DHT22;806;48.770;9.156;2023-02-14T00:15:59;1.90;99.90
1626;DHT22;806;48.770;9.156;2023-02-14T00:18:25;1.90;99.90
1626;DHT22;806;48.770;9.156;2023-02-14T00:21:14;1.90;99.90
1626;DHT22;806;48.770;9.156;2023-02-14T00:23:41;1.90;99.90
1626;DHT22;806;48.770;9.156;2023-02-14T00:26:11;1.90;99.90
1626;DHT22;806;48.770;9.156;2023-02-14T00:28:38;1.90;99.90
1626;DHT22;806;48.770;9.156;2023-02-14T00:31:05;1.80;99.90
1626;DHT22;806;48.770;9.156;2023-02-14T00:33:32;1.80;99.90
1626;DHT22;806;48.770;9.156;2023-02-14T00:36:01;1.80;99.90
1626;DHT22;806;48.770;9.156;2023-02-14T00:38:29;1.80;99.90
1626;DHT22;806;48.770;9.156;2023-02-14T00:40:56;1.80;99.90
1626;DHT22;806;48.770;9.156;2023-02-14T00:43:23;1.90;99.90
1626;DHT22;806;48.770;9.156;2023-02-14T00:45:50;1.90;99.90
1626;DHT22;806;48.770;9.156;2023-02-14T00:48:17;1.90;99.90
1626;DHT22;806;48.770;9.156;2023-02-14T00:50:43;1.90;99.90
1626;DHT22;806;48.770;9.156;2023-02-14T00:53:11;1.90;99.90
1626;DHT22;806;48.770;9.156;2023-02-14T00:55:40;1.80;99.90
1626;DHT22;806;48.770;9.156;2023-02-14T00:58:07;1.80;99.90
1626;DHT22;806;48.770;9.156;2023-02-14T01:00:33;1.90;99.90
1626;DHT22;806;48.770;9.156;2023-02-14T01:03:00;2.10;99.90
1626;DHT22;806;48.770;9.156;2023-02-14T01:05:27;2.20;99.90
1626;DHT22;806;48.770;9.156;2023-02-14T01:07:54;2.30;99.90
1626;DHT22;806;48.770;9.156;2023-02-14T01:10:21;2.40;99.90
1626;DHT22;806;48.770;9.156;2023-02-14T01:12:49;2.40;99.90
1626;DHT22;806;48.770;9.156;2023-02-14T01:15:16;2.40;99.90
1626;DHT22;806;48.770;9.156;2023-02-14T01:17:43;2.50;99.90
1626;DHT22;806;48.770;9.156;2023-02-14T01:20:10;2.60;99.90
1626;DHT22;806;48.770;9.156;2023-02-14T01:22:36;2.70;99.90
1626;DHT22;806;48.770;9.156;2023-02-14T01:25:04;2.50;99.90
1626;DHT22;806;48.770;9.156;2023-02-14T01:27:30;2.30;99.90
1626;DHT22;806;48.770;9.156;2023-02-14T01:29:59;2.30;99.90
1626;DHT22;806;48.770;9.156;2023-02-14T01:32:25;2.40;99.90
1626;DHT22;806;48.770;9.156;2023-02-14T01:34:55;2.30;99.90
1626;DHT22;806;48.770;9.156;2023-02-14T01:37:22;2.40;99.90
1626;DHT22;806;48.770;9.156;2023-02-14T01:39:49;2.40;99.90
1626;DHT22;806;48.770;9.156;2023-02-14T01:42:16;2.40;99.90
1626;DHT22;806;48.770;9.156;2023-02-14T01:44:53;2.40;99.90
1626;DHT22;806;48.770;9.156;2023-02-14T01:47:22;2.40;99.90
1626;DHT22;806;48.770;9.156;2023-02-14T01:49:51;2.40;99.90
1626;DHT22;806;48.770;9.156;2023-02-14T01:52:19;2.50;99.90
1626;DHT22;806;48.770;9.156;2023-02-14T01:54:48;2.50;99.90
1626;DHT22;806;48.770;9.156;2023-02-14T01:57:16;2.50;99.90
1626;DHT22;806;48.770;9.156;2023-02-14T01:59:45;2.50;99.90
1626;DHT22;806;48.770;9.156;2023-02-14T02:02:13;2.40;99.90
1626;DHT22;806;48.770;9.156;2023-02-14T02:04:50;2.40;99.90
1626;DHT22;806;48.770;9.156;2023-02-14T02:07:20;2.40;99.90
1626;DHT22;806;48.770;9.156;2023-02-14T02:09:49;2.40;99.90
1626;DHT22;806;48.770;9.156;2023-02-14T02:12:17;2.40;99.90
1626;DHT22;806;48.770;9.156;2023-02-14T02:14:44;2.40;99.90
1626;DHT22;806;48.770;9.156;2023-02-14T02:17:15;2.40;99.90
1626;DHT22;806;48.770;9.156;2023-02-14T02:19:53;2.40;99.90
1626;DHT22;806;48.770;9.156;2023-02-14T02:22:37;2.30;99.90
1626;DHT22;806;48.770;9.156;2023-02-14T02:25:10;2.30;99.90
1626;DHT22;806;48.770;9.156;2023-02-14T02:30:38;2.10;99.90
1626;DHT22;806;48.770;9.156;2023-02-14T02:36:07;2.10;99.90
1626;DHT22;806;48.770;9.156;2023-02-14T02:38:40;2.00;99.90
1626;DHT22;806;48.770;9.156;2023-02-14T02:41:12;2.10;99.90
1626;DHT22;806;48.770;9.156;2023-02-14T02:43:42;2.10;99.90
1626;DHT22;806;48.770;9.156;2023-02-14T02:46:11;2.10;99.90
1626;DHT22;806;48.770;9.156;2023-02-14T02:48:58;2.00;99.90
1626;DHT22;806;48.770;9.156;2023-02-14T02:51:29;2.00;99.90
1626;DHT22;806;48.770;9.156;2023-02-14T02:54:16;1.90;99.90
1626;DHT22;806;48.770;9.156;2023-02-14T02:56:45;1.80;99.90
1626;DHT22;806;48.770;9.156;2023-02-14T02:59:16;1.90;99.90
1626;DHT22;806;48.770;9.156;2023-02-14T03:01:46;2.00;99.90
1626;DHT22;806;48.770;9.156;2023-02-14T03:04:14;2.00;99.90
1626;DHT22;806;48.770;9.156;2023-02-14T03:07:01;1.90;99.90
1626;DHT22;806;48.770;9.156;2023-02-14T03:09:49;1.90;99.90
1626;DHT22;806;48.770;9.156;2023-02-14T03:12:19;1.80;99.90
1626;DHT22;806;48.770;9.156;2023-02-14T03:14:54;1.80;99.90
1626;DHT22;806;48.770;9.156;2023-02-14T03:17:26;1.80;99.90
1626;DHT22;806;48.770;9.156;2023-02-14T03:19:56;2.00;99.90
1626;DHT22;806;48.770;9.156;2023-02-14T03:22:48;2.10;99.90
1626;DHT22;806;48.770;9.156;2023-02-14T03:25:21;2.20;99.90
1626;DHT22;806;48.770;9.156;2023-02-14T03:27:51;2.30;99.90
1626;DHT22;806;48.770;9.156;2023-02-14T03:30:19;2.20;99.90
1626;DHT22;806;48.770;9.156;2023-02-14T03:32:50;2.20;99.90
1626;DHT22;806;48.770;9.156;2023-02-14T03:35:22;2.20;99.90
1626;DHT22;806;48.770;9.156;2023-02-14T03:37:54;2.10;99.90
1626;DHT22;806;48.770;9.156;2023-02-14T03:40:21;2.10;99.90
1626;DHT22;806;48.770;9.156;2023-02-14T03:42:49;2.00;99.90
1626;DHT22;806;48.770;9.156;2023-02-14T03:45:18;1.90;99.90
1626;DHT22;806;48.770;9.156;2023-02-14T03:47:45;1.90;99.90
1626;DHT22;806;48.770;9.156;2023-02-14T03:50:13;1.80;99.90
1626;DHT22;806;48.770;9.156;2023-02-14T03:52:41;1.90;99.90
1626;DHT22;806;48.770;9.156;2023-02-14T03:55:10;1.90;99.90
1626;DHT22;806;48.770;9.156;2023-02-14T03:57:41;1.90;99.90
1626;DHT22;806;48.770;9.156;2023-02-14T04:00:12;2.00;99.90
1626;DHT22;806;48.770;9.156;2023-02-14T04:02:40;2.00;99.90
1626;DHT22;806;48.770;9.156;2023-02-14T04:05:08;2.00;99.90
1626;DHT22;806;48.770;9.156;2023-02-14T04:07:42;2.00;99.90
1626;DHT22;806;48.770;9.156;2023-02-14T04:10:11;1.90;99.90
1626;DHT22;806;48.770;9.156;2023-02-14T04:12:38;1.80;99.90
1626;DHT22;806;48.770;9.156;2023-02-14T04:15:05;1.70;99.90
1626;DHT22;806;48.770;9.156;2023-02-14T04:17:32;1.60;99.90
1626;DHT22;806;48.770;9.156;2023-02-14T04:20:16;1.50;99.90
1626;DHT22;806;48.770;9.156;2023-02-14T04:22:43;1.40;99.90
1626;DHT22;806;48.770;9.156;2023-02-14T04:25:13;1.40;99.90
1626;DHT22;806;48.770;9.156;2023-02-14T04:27:41;1.30;99.90
1626;DHT22;806;48.770;9.156;2023-02-14T04:30:08;1.30;99.90
1626;DHT22;806;48.770;9.156;2023-02-14T04:32:36;1.30;99.90
1626;DHT22;806;48.770;9.156;2023-02-14T04:35:04;1.30;99.90
1626;DHT22;806;48.770;9.156;2023-02-14T04:37:31;1.30;99.90
1626;DHT22;806;48.770;9.156;2023-02-14T04:39:58;1.40;99.90
1626;DHT22;806;48.770;9.156;2023-02-14T04:42:26;1.40;99.90
1626;DHT22;806;48.770;9.156;2023-02-14T04:44:53;1.40;99.90
1626;DHT22;806;48.770;9.156;2023-02-14T04:47:20;1.40;99.90
1626;DHT22;806;48.770;9.156;2023-02-14T04:49:47;1.40;99.90
1626;DHT22;806;48.770;9.156;2023-02-14T04:52:14;1.40;99.90
1626;DHT22;806;48.770;9.156;2023-02-14T04:54:41;1.40;99.90
1626;DHT22;806;48.770;9.156;2023-02-14T04:57:07;1.40;99.90
1626;DHT22;806;48.770;9.156;2023-02-14T04:59:36;1.40;99.90
1626;DHT22;806;48.770;9.156;2023-02-14T05:02:02;1.40;99.90
1626;DHT22;806;48.770;9.156;2023-02-14T05:04:29;1.40;99.90
1626;DHT22;806;48.770;9.156;2023-02-14T05:06:56;1.40;99.90
1626;DHT22;806;48.770;9.156;2023-02-14T05:09:23;1.30;99.90
1626;DHT22;806;48.770;9.156;2023-02-14T05:11:50;1.30;99.90
1626;DHT22;806;48.770;9.156;2023-02-14T05:14:17;1.20;99.90
1626;DHT22;806;48.770;9.156;2023-02-14T05:16:45;1.30;99.90
1626;DHT22;806;48.770;9.156;2023-02-14T05:19:12;1.30;99.90
1626;DHT22;806;48.770;9.156;2023-02-14T05:21:39;1.30;99.90
1626;DHT22;806;48.770;9.156;2023-02-14T05:24:05;1.30;99.90
1626;DHT22;806;48.770;9.156;2023-02-14T05:26:32;1.30;99.90
1626;DHT22;806;48.770;9.156;2023-02-14T05:28:59;1.20;99.90
1626;DHT22;806;48.770;9.156;2023-02-14T05:31:26;1.30;99.90
1626;DHT22;806;48.770;9.156;2023-02-14T05:33:54;1.30;99.90
1626;DHT22;806;48.770;9.156;2023-02-14T05:36:21;1.30;99.90
1626;DHT22;806;48.770;9.156;2023-02-14T05:38:48;1.20;99.90
1626;DHT22;806;48.770;9.156;2023-02-14T05:41:15;1.20;99.90
1626;DHT22;806;48.770;9.156;2023-02-14T05:43:42;1.20;99.90
1626;DHT22;806;48.770;9.156;2023-02-14T05:46:09;1.20;99.90
1626;DHT22;806;48.770;9.156;2023-02-14T05:48:35;1.20;99.90
1626;DHT22;806;48.770;9.156;2023-02-14T05:51:04;1.20;99.90
1626;DHT22;806;48.770;9.156;2023-02-14T05:53:31;1.30;99.90
1626;DHT22;806;48.770;9.156;2023-02-14T05:55:58;1.30;99.90
1626;DHT22;806;48.770;9.156;2023-02-14T05:58:26;1.20;99.90
1626;DHT22;806;48.770;9.156;2023-02-14T06:00:54;1.20;99.90
1626;DHT22;806;48.770;9.156;2023-02-14T06:03:21;1.10;99.90
1626;DHT22;806;48.770;9.156;2023-02-14T06:05:48;1.20;99.90
1626;DHT22;806;48.770;9.156;2023-02-14T06:08:16;1.20;99.90
1626;DHT22;806;48.770;9.156;2023-02-14T06:10:43;1.10;99.90
1626;DHT22;806;48.770;9.156;2023-02-14T06:13:11;1.00;99.90
1626;DHT22;806;48.770;9.156;2023-02-14T06:15:38;0.90;99.90
1626;DHT22;806;48.770;9.156;2023-02-14T06:18:05;1.00;99.90
1626;DHT22;806;48.770;9.156;2023-02-14T06:20:32;1.00;99.90
1626;DHT22;806;48.770;9.156;2023-02-14T06:22:59;0.90;99.90
1626;DHT22;806;48.770;9.156;2023-02-14T06:25:27;0.90;99.90
1626;DHT22;806;48.770;9.156;2023-02-14T06:27:54;0.90;99.90
1626;DHT22;806;48.770;9.156;2023-02-14T06:30:21;0.90;99.90
1626;DHT22;806;48.770;9.156;2023-02-14T06:32:48;0.90;99.90
1626;DHT22;806;48.770;9.156;2023-02-14T06:35:15;0.90;99.90
1626;DHT22;806;48.770;9.156;2023-02-14T06:37:42;0.90;99.90
1626;DHT22;806;48.770;9.156;2023-02-14T06:40:10;0.90;99.90
1626;DHT22;806;48.770;9.156;2023-02-14T06:42:38;0.80;99.90
1626;DHT22;806;48.770;9.156;2023-02-14T06:45:05;0.80;99.90
1626;DHT22;806;48.770;9.156;2023-02-14T06:47:32;0.90;99.90
1626;DHT22;806;48.770;9.156;2023-02-14T06:49:59;0.80;99.90
1626;DHT22;806;48.770;9.156;2023-02-14T06:52:28;0.90;99.90
1626;DHT22;806;48.770;9.156;2023-02-14T06:54:55;0.90;99.90
1626;DHT22;806;48.770;9.156;2023-02-14T06:57:22;0.90;99.90
1626;DHT22;806;48.770;9.156;2023-02-14T06:59:51;0.90;99.90
1626;DHT22;806;48.770;9.156;2023-02-14T07:02:18;0.90;99.90
1626;DHT22;806;48.770;9.156;2023-02-14T07:04:45;0.90;99.90
1626;DHT22;806;48.770;9.156;2023-02-14T07:07:11;0.80;99.90
1626;DHT22;806;48.770;9.156;2023-02-14T07:09:38;0.80;99.90
1626;DHT22;806;48.770;9.156;2023-02-14T07:12:05;0.80;99.90
1626;DHT22;806;48.770;9.156;2023-02-14T07:14:35;0.70;99.90
1626;DHT22;806;48.770;9.156;2023-02-14T07:17:03;0.80;99.90
1626;DHT22;806;48.770;9.156;2023-02-14T07:19:30;0.80;99.90
1626;DHT22;806;48.770;9.156;2023-02-14T07:21:57;0.80;99.90
1626;DHT22;806;48.770;9.156;2023-02-14T07:24:24;0.80;99.90
1626;DHT22;806;48.770;9.156;2023-02-14T07:26:51;0.80;99.90
1626;DHT22;806;48.770;9.156;2023-02-14T07:29:17;0.80;99.90
1626;DHT22;806;48.770;9.156;2023-02-14T07:31:44;0.80;99.90
1626;DHT22;806;48.770;9.156;2023-02-14T07:34:12;0.80;99.90
1626;DHT22;806;48.770;9.156;2023-02-14T07:36:39;0.90;99.90
1626;DHT22;806;48.770;9.156;2023-02-14T07:39:06;1.10;99.90
1626;DHT22;806;48.770;9.156;2023-02-14T07:41:33;1.70;99.90
1626;DHT22;806;48.770;9.156;2023-02-14T07:44:00;1.70;99.90
1626;DHT22;806;48.770;9.156;2023-02-14T07:46:27;1.80;99.90
1626;DHT22;806;48.770;9.156;2023-02-14T07:48:53;1.80;99.90
1626;DHT22;806;48.770;9.156;2023-02-14T07:51:22;1.70;99.90
1626;DHT22;806;48.770;9.156;2023-02-14T07:53:49;1.80;99.90
1626;DHT22;806;48.770;9.156;2023-02-14T07:56:15;1.80;99.90
1626;DHT22;806;48.770;9.156;2023-02-14T07:58:42;1.80;99.90
1626;DHT22;806;48.770;9.156;2023-02-14T08:01:09;1.80;99.90
1626;DHT22;806;48.770;9.156;2023-02-14T08:03:36;1.90;99.90
1626;DHT22;806;48.770;9.156;2023-02-14T08:06:03;2.10;99.90
1626;DHT22;806;48.770;9.156;2023-02-14T08:08:31;2.10;99.90
1626;DHT22;806;48.770;9.156;2023-02-14T08:10:58;2.20;99.90
1626;DHT22;806;48.770;9.156;2023-02-14T08:13:25;2.30;99.90
1626;DHT22;806;48.770;9.156;2023-02-14T08:15:52;2.40;99.90
1626;DHT22;806;48.770;9.156;2023-02-14T08:18:31;2.80;99.90
1626;DHT22;806;48.770;9.156;2023-02-14T08:20:58;2.90;99.90
1626;DHT22;806;48.770;9.156;2023-02-14T08:23:25;2.90;99.90
1626;DHT22;806;48.770;9.156;2023-02-14T08:25:54;3.20;99.90
1626;DHT22;806;48.770;9.156;2023-02-14T08:28:21;3.10;99.90
1626;DHT22;806;48.770;9.156;2023-02-14T08:30:48;3.00;99.90
1626;DHT22;806;48.770;9.156;2023-02-14T08:33:15;3.00;99.90
1626;DHT22;806;48.770;9.156;2023-02-14T08:35:42;2.90;99.90
1626;DHT22;806;48.770;9.156;2023-02-14T08:38:09;2.70;99.90
1626;DHT22;806;48.770;9.156;2023-02-14T08:40:36;2.80;99.90
1626;DHT22;806;48.770;9.156;2023-02-14T08:43:05;2.60;99.90
1626;DHT22;806;48.770;9.156;2023-02-14T08:45:32;2.60;99.90
1626;DHT22;806;48.770;9.156;2023-02-14T08:48:00;2.50;99.90
1626;DHT22;806;48.770;9.156;2023-02-14T08:50:27;2.80;99.90
1626;DHT22;806;48.770;9.156;2023-02-14T08:52:54;3.20;99.90
1626;DHT22;806;48.770;9.156;2023-02-14T08:55:21;3.50;99.90
1626;DHT22;806;48.770;9.156;2023-02-14T08:57:48;4.00;99.90
1626;DHT22;806;48.770;9.156;2023-02-14T09:00:16;4.10;99.90
1626;DHT22;806;48.770;9.156;2023-02-14T09:02:43;3.80;99.90
1626;DHT22;806;48.770;9.156;2023-02-14T09:05:10;3.70;99.90
1626;DHT22;806;48.770;9.156;2023-02-14T09:07:37;3.60;99.90
1626;DHT22;806;48.770;9.156;2023-02-14T09:10:04;3.70;99.90
1626;DHT22;806;48.770;9.156;2023-02-14T09:12:37;3.70;99.90
1626;DHT22;806;48.770;9.156;2023-02-14T09:15:04;3.70;99.90
1626;DHT22;806;48.770;9.156;2023-02-14T09:17:33;3.70;99.90
1626;DHT22;806;48.770;9.156;2023-02-14T09:20:00;3.80;99.90
1626;DHT22;806;48.770;9.156;2023-02-14T09:22:27;4.00;99.90
1626;DHT22;806;48.770;9.156;2023-02-14T09:24:54;4.00;99.90
1626;DHT22;806;48.770;9.156;2023-02-14T09:27:21;4.00;99.90
1626;DHT22;806;48.770;9.156;2023-02-14T09:29:48;4.00;99.90
1626;DHT22;806;48.770;9.156;2023-02-14T09:32:15;4.10;99.90
1626;DHT22;806;48.770;9.156;2023-02-14T09:34:43;4.20;99.90
1626;DHT22;806;48.770;9.156;2023-02-14T09:37:10;4.40;99.90
1626;DHT22;806;48.770;9.156;2023-02-14T09:39:37;4.50;99.90
1626;DHT22;806;48.770;9.156;2023-02-14T09:44:58;4.40;99.90
1626;DHT22;806;48.770;9.156;2023-02-14T09:47:30;4.40;99.90
1626;DHT22;806;48.770;9.156;2023-02-14T09:50:00;4.40;99.90
1626;DHT22;806;48.770;9.156;2023-02-14T09:52:27;4.50;99.90
1626;DHT22;806;48.770;9.156;2023-02-14T09:54:57;4.60;99.90
1626;DHT22;806;48.770;9.156;2023-02-14T09:57:28;4.60;99.90
1626;DHT22;806;48.770;9.156;2023-02-14T09:59:59;4.80;99.90
1626;DHT22;806;48.770;9.156;2023-02-14T10:02:37;4.80;99.90
1626;DHT22;806;48.770;9.156;2023-02-14T10:05:08;4.80;99.90
1626;DHT22;806;48.770;9.156;2023-02-14T10:07:39;4.90;99.90
1626;DHT22;806;48.770;9.156;2023-02-14T10:10:09;5.00;99.90
1626;DHT22;806;48.770;9.156;2023-02-14T10:12:39;5.00;99.90
1626;DHT22;806;48.770;9.156;2023-02-14T10:15:11;5.10;99.90
1626;DHT22;806;48.770;9.156;2023-02-14T10:17:39;5.20;99.90
1626;DHT22;806;48.770;9.156;2023-02-14T10:20:15;5.40;99.90
1626;DHT22;806;48.770;9.156;2023-02-14T10:22:48;5.40;99.90
1626;DHT22;806;48.770;9.156;2023-02-14T10:25:17;5.40;99.90
1626;DHT22;806;48.770;9.156;2023-02-14T10:27:46;5.50;99.90
1626;DHT22;806;48.770;9.156;2023-02-14T10:30:14;5.70;99.90
1626;DHT22;806;48.770;9.156;2023-02-14T10:32:43;5.80;99.90
1626;DHT22;806;48.770;9.156;2023-02-14T10:35:13;5.90;99.90
1626;DHT22;806;48.770;9.156;2023-02-14T10:37:47;5.90;99.90
1626;DHT22;806;48.770;9.156;2023-02-14T10:40:23;6.00;99.90
1626;DHT22;806;48.770;9.156;2023-02-14T10:42:54;5.90;99.90
1626;DHT22;806;48.770;9.156;2023-02-14T10:45:25;6.00;99.90
1626;DHT22;806;48.770;9.156;2023-02-14T10:47:55;6.10;99.90
1626;DHT22;806;48.770;9.156;2023-02-14T10:50:25;6.30;99.90
1626;DHT22;806;48.770;9.156;2023-02-14T10:52:57;6.40;99.90
1626;DHT22;806;48.770;9.156;2023-02-14T10:55:32;6.60;99.90
1626;DHT22;806;48.770;9.156;2023-02-14T10:58:02;6.60;99.90
1626;DHT22;806;48.770;9.156;2023-02-14T11:00:32;6.80;99.90
1626;DHT22;806;48.770;9.156;2023-02-14T11:03:00;7.00;99.90
1626;DHT22;806;48.770;9.156;2023-02-14T11:05:30;7.20;99.90
1626;DHT22;806;48.770;9.156;2023-02-14T11:07:59;7.40;99.90
1626;DHT22;806;48.770;9.156;2023-02-14T11:10:28;7.50;99.90
1626;DHT22;806;48.770;9.156;2023-02-14T11:12:56;7.40;99.90
1626;DHT22;806;48.770;9.156;2023-02-14T11:15:24;7.30;99.90
1626;DHT22;806;48.770;9.156;2023-02-14T11:18:11;7.50;99.90
1626;DHT22;806;48.770;9.156;2023-02-14T11:20:40;7.60;99.90
1626;DHT22;806;48.770;9.156;2023-02-14T11:23:18;7.90;99.90
1626;DHT22;806;48.770;9.156;2023-02-14T11:25:48;8.10;99.90
1626;DHT22;806;48.770;9.156;2023-02-14T11:28:15;8.40;99.90
1626;DHT22;806;48.770;9.156;2023-02-14T11:30:44;8.50;99.90
1626;DHT22;806;48.770;9.156;2023-02-14T11:33:12;8.60;99.90
1626;DHT22;806;48.770;9.156;2023-02-14T11:35:39;8.60;99.90
1626;DHT22;806;48.770;9.156;2023-02-14T11:38:09;8.70;99.90
1626;DHT22;806;48.770;9.156;2023-02-14T11:40:53;8.90;99.90
1626;DHT22;806;48.770;9.156;2023-02-14T11:43:28;9.00;99.90
1626;DHT22;806;48.770;9.156;2023-02-14T11:46:03;9.00;99.90
1626;DHT22;806;48.770;9.156;2023-02-14T11:48:30;9.10;99.90
1626;DHT22;806;48.770;9.156;2023-02-14T11:51:00;9.10;99.90
1626;DHT22;806;48.770;9.156;2023-02-14T11:53:29;9.10;99.90
1626;DHT22;806;48.770;9.156;2023-02-14T11:56:00;9.10;99.90
1626;DHT22;806;48.770;9.156;2023-02-14T11:58:29;9.20;99.90
1626;DHT22;806;48.770;9.156;2023-02-14T12:00:56;9.20;99.90
1626;DHT22;806;48.770;9.156;2023-02-14T12:03:23;9.30;99.90
1626;DHT22;806;48.770;9.156;2023-02-14T12:05:51;9.40;99.90
1626;DHT22;806;48.770;9.156;2023-02-14T12:08:25;9.50;99.90
1626;DHT22;806;48.770;9.156;2023-02-14T12:11:01;9.60;99.90
1626;DHT22;806;48.770;9.156;2023-02-14T12:13:29;9.70;99.90
1626;DHT22;806;48.770;9.156;2023-02-14T12:15:56;9.60;99.90
1626;DHT22;806;48.770;9.156;2023-02-14T12:18:28;9.60;99.90
1626;DHT22;806;48.770;9.156;2023-02-14T12:21:00;9.60;99.90
1626;DHT22;806;48.770;9.156;2023-02-14T12:23:31;9.60;99.90
1626;DHT22;806;48.770;9.156;2023-02-14T12:26:01;9.80;99.90
1626;DHT22;806;48.770;9.156;2023-02-14T12:28:30;10.00;99.90
1626;DHT22;806;48.770;9.156;2023-02-14T12:31:07;10.10;99.90
1626;DHT22;806;48.770;9.156;2023-02-14T12:33:34;10.10;99.90
1626;DHT22;806;48.770;9.156;2023-02-14T12:36:02;10.20;99.90
1626;DHT22;806;48.770;9.156;2023-02-14T12:38:37;10.20;99.90
1626;DHT22;806;48.770;9.156;2023-02-14T12:41:11;10.30;99.90
1626;DHT22;806;48.770;9.156;2023-02-14T12:43:46;10.20;99.90
1626;DHT22;806;48.770;9.156;2023-02-14T12:46:20;10.30;99.90
1626;DHT22;806;48.770;9.156;2023-02-14T12:48:54;10.30;99.90
1626;DHT22;806;48.770;9.156;2023-02-14T12:51:28;10.40;99.90
1626;DHT22;806;48.770;9.156;2023-02-14T12:53:58;10.30;99.90
1626;DHT22;806;48.770;9.156;2023-02-14T12:56:29;10.30;99.90
1626;DHT22;806;48.770;9.156;2023-02-14T12:59:00;10.40;99.90
1626;DHT22;806;48.770;9.156;2023-02-14T13:01:34;10.20;99.90
1626;DHT22;806;48.770;9.156;2023-02-14T13:04:16;10.00;99.90
1626;DHT22;806;48.770;9.156;2023-02-14T13:06:47;9.90;99.90
1626;DHT22;806;48.770;9.156;2023-02-14T13:09:24;9.90;99.90
1626;DHT22;806;48.770;9.156;2023-02-14T13:11:58;9.90;99.90
1626;DHT22;806;48.770;9.156;2023-02-14T13:14:42;10.00;99.90
1626;DHT22;806;48.770;9.156;2023-02-14T13:17:15;10.10;99.90
1626;DHT22;806;48.770;9.156;2023-02-14T13:19:45;10.10;99.90
1626;DHT22;806;48.770;9.156;2023-02-14T13:22:15;10.00;99.90
1626;DHT22;806;48.770;9.156;2023-02-14T13:24:43;10.00;99.90
1626;DHT22;806;48.770;9.156;2023-02-14T13:27:17;10.00;99.90
1626;DHT22;806;48.770;9.156;2023-02-14T13:29:46;10.00;99.90
1626;DHT22;806;48.770;9.156;2023-02-14T13:32:14;10.10;99.90
1626;DHT22;806;48.770;9.156;2023-02-14T13:34:44;10.00;99.90
1626;DHT22;806;48.770;9.156;2023-02-14T13:37:12;10.10;99.90
1626;DHT22;806;48.770;9.156;2023-02-14T13:39:41;10.10;99.90
1626;DHT22;806;48.770;9.156;2023-02-14T13:42:08;10.10;99.90
1626;DHT22;806;48.770;9.156;2023-02-14T13:44:43;10.20;99.90
1626;DHT22;806;48.770;9.156;2023-02-14T13:47:17;10.00;99.90
1626;DHT22;806;48.770;9.156;2023-02-14T13:49:46;10.00;99.90
1626;DHT22;806;48.770;9.156;2023-02-14T13:52:14;10.00;99.90
1626;DHT22;806;48.770;9.156;2023-02-14T13:55:00;9.90;99.90
1626;DHT22;806;48.770;9.156;2023-02-14T13:57:30;9.70;99.90
1626;DHT22;806;48.770;9.156;2023-02-14T14:00:21;9.80;99.90
1626;DHT22;806;48.770;9.156;2023-02-14T14:02:49;9.90;99.90
1626;DHT22;806;48.770;9.156;2023-02-14T14:08:15;10.00;99.90
1626;DHT22;806;48.770;9.156;2023-02-14T14:10:43;10.00;99.90
1626;DHT22;806;48.770;9.156;2023-02-14T14:13:10;10.00;99.90
1626;DHT22;806;48.770;9.156;2023-02-14T14:18:44;10.00;99.90
1626;DHT22;806;48.770;9.156;2023-02-14T14:21:15;10.00;99.90
1626;DHT22;806;48.770;9.156;2023-02-14T14:23:43;10.00;99.90
1626;DHT22;806;48.770;9.156;2023-02-14T14:28:57;9.90;99.90
1626;DHT22;806;48.770;9.156;2023-02-14T14:31:24;9.80;99.90
1626;DHT22;806;48.770;9.156;2023-02-14T14:33:58;9.70;99.90
1626;DHT22;806;48.770;9.156;2023-02-14T14:36:25;9.60;99.90
1626;DHT22;806;48.770;9.156;2023-02-14T14:38:52;9.60;99.90
1626;DHT22;806;48.770;9.156;2023-02-14T14:41:19;9.60;99.90
1626;DHT22;806;48.770;9.156;2023-02-14T14:43:51;9.60;99.90
1626;DHT22;806;48.770;9.156;2023-02-14T14:46:18;9.50;99.90
1626;DHT22;806;48.770;9.156;2023-02-14T14:48:46;9.50;99.90
1626;DHT22;806;48.770;9.156;2023-02-14T14:51:21;9.40;99.90
1626;DHT22;806;48.770;9.156;2023-02-14T14:53:49;9.40;99.90
1626;DHT22;806;48.770;9.156;2023-02-14T14:56:18;9.40;99.90
1626;DHT22;806;48.770;9.156;2023-02-14T14:58:45;9.30;99.90
1626;DHT22;806;48.770;9.156;2023-02-14T15:01:13;9.30;99.90
1626;DHT22;806;48.770;9.156;2023-02-14T15:03:53;9.20;99.90
1626;DHT22;806;48.770;9.156;2023-02-14T15:06:21;9.20;99.90
1626;DHT22;806;48.770;9.156;2023-02-14T15:08:49;9.30;99.90
1626;DHT22;806;48.770;9.156;2023-02-14T15:11:17;9.20;99.90
1626;DHT22;806;48.770;9.156;2023-02-14T15:14:00;9.20;99.90
1626;DHT22;806;48.770;9.156;2023-02-14T15:16:28;9.10;99.90
1626;DHT22;806;48.770;9.156;2023-02-14T15:18:56;9.00;99.90
1626;DHT22;806;48.770;9.156;2023-02-14T15:21:25;9.00;99.90
1626;DHT22;806;48.770;9.156;2023-02-14T15:23:53;9.00;99.90
1626;DHT22;806;48.770;9.156;2023-02-14T15:26:21;9.00;99.90
1626;DHT22;806;48.770;9.156;2023-02-14T15:28:55;8.90;99.90
1626;DHT22;806;48.770;9.156;2023-02-14T15:31:24;8.90;99.90
1626;DHT22;806;48.770;9.156;2023-02-14T15:33:51;8.80;99.90
1626;DHT22;806;48.770;9.156;2023-02-14T15:36:18;8.70;99.90
1626;DHT22;806;48.770;9.156;2023-02-14T15:38:50;8.70;99.90
1626;DHT22;806;48.770;9.156;2023-02-14T15:41:18;8.60;99.90
1626;DHT22;806;48.770;9.156;2023-02-14T15:43:47;8.60;99.90
1626;DHT22;806;48.770;9.156;2023-02-14T15:46:17;8.50;99.90
1626;DHT22;806;48.770;9.156;2023-02-14T15:48:44;8.50;99.90
1626;DHT22;806;48.770;9.156;2023-02-14T15:51:15;8.40;99.90
1626;DHT22;806;48.770;9.156;2023-02-14T15:53:43;8.40;99.90
1626;DHT22;806;48.770;9.156;2023-02-14T15:56:17;8.40;99.90
1626;DHT22;806;48.770;9.156;2023-02-14T15:58:44;8.30;99.90
1626;DHT22;806;48.770;9.156;2023-02-14T16:01:11;8.20;99.90
1626;DHT22;806;48.770;9.156;2023-02-14T16:03:38;8.20;99.90
1626;DHT22;806;48.770;9.156;2023-02-14T16:06:12;8.10;99.90
1626;DHT22;806;48.770;9.156;2023-02-14T16:08:41;8.00;99.90
1626;DHT22;806;48.770;9.156;2023-02-14T16:11:11;8.00;99.90
1626;DHT22;806;48.770;9.156;2023-02-14T16:13:41;7.90;99.90
1626;DHT22;806;48.770;9.156;2023-02-14T16:16:08;7.80;99.90
1626;DHT22;806;48.770;9.156;2023-02-14T16:18:36;7.80;99.90
1626;DHT22;806;48.770;9.156;2023-02-14T16:21:10;7.70;99.90
1626;DHT22;806;48.770;9.156;2023-02-14T16:23:37;7.70;99.90
1626;DHT22;806;48.770;9.156;2023-02-14T16:26:04;7.60;99.90
1626;DHT22;806;48.770;9.156;2023-02-14T16:28:31;7.60;99.90
1626;DHT22;806;48.770;9.156;2023-02-14T16:31:00;7.50;99.90
1626;DHT22;806;48.770;9.156;2023-02-14T16:33:31;7.50;99.90
1626;DHT22;806;48.770;9.156;2023-02-14T16:36:00;7.40;99.90
1626;DHT22;806;48.770;9.156;2023-02-14T16:38:31;7.40;99.90
1626;DHT22;806;48.770;9.156;2023-02-14T16:40:59;7.30;99.90
1626;DHT22;806;48.770;9.156;2023-02-14T16:43:26;7.20;99.90
1626;DHT22;806;48.770;9.156;2023-02-14T16:45:53;7.10;99.90
1626;DHT22;806;48.770;9.156;2023-02-14T16:48:21;7.10;99.90
1626;DHT22;806;48.770;9.156;2023-02-14T16:50:48;7.10;99.90
1626;DHT22;806;48.770;9.156;2023-02-14T16:53:23;7.00;99.90
1626;DHT22;806;48.770;9.156;2023-02-14T16:55:50;7.00;99.90
1626;DHT22;806;48.770;9.156;2023-02-14T16:58:17;6.90;99.90
1626;DHT22;806;48.770;9.156;2023-02-14T17:00:45;6.90;99.90
1626;DHT22;806;48.770;9.156;2023-02-14T17:03:12;6.90;99.90